createdAt,value
2023-02-19T00:01:19.874Z,7.32
2023-02-19T00:03:52.618Z,7.88
2023-02-19T00:06:20.521Z,6.40
2023-02-19T00:08:47.272Z,7.65
2023-02-19T00:11:20.606Z,7.05
2023-02-19T00:13:50.204Z,8.57
2023-02-19T00:16:28.144Z,6.57
2023-02-19T00:18:56.294Z,7.43
2023-02-19T00:21:23.836Z,8.05
2023-02-19T00:23:53.097Z,8.40
2023-02-19T00:26:20.037Z,7.35
2023-02-19T00:28:50.873Z,7.57
2023-02-19T00:31:27.113Z,7.70
2023-02-19T00:33:57.397Z,7.18
2023-02-19T00:36:25.750Z,8.82
2023-02-19T00:38:52.491Z,7.57
2023-02-19T00:41:21.421Z,6.75
2023-02-19T00:43:59.567Z,7.13
2023-02-19T00:46:46.421Z,6.38
2023-02-19T00:49:20.082Z,8.15
2023-02-19T00:51:47.651Z,8.75
2023-02-19T00:54:14.884Z,7.65
2023-02-19T00:56:42.244Z,7.15
2023-02-19T00:59:09.116Z,9.20
2023-02-19T01:01:36.129Z,7.43
2023-02-19T01:04:04.289Z,8.82
2023-02-19T01:06:32.982Z,9.82
2023-02-19T01:08:59.628Z,8.80
2023-02-19T01:11:27.310Z,9.55
2023-02-19T01:13:58.497Z,7.38
2023-02-19T01:16:25.345Z,8.98
2023-02-19T01:18:52.295Z,7.22
2023-02-19T01:21:22.074Z,9.75
2023-02-19T01:23:50.247Z,8.55
2023-02-19T01:26:29.246Z,8.77
2023-02-19T01:28:55.922Z,8.05
2023-02-19T01:31:24.428Z,8.60
2023-02-19T01:33:53.572Z,8.90
2023-02-19T01:36:20.349Z,10.05
2023-02-19T01:38:47.679Z,10.38
2023-02-19T01:41:17.029Z,7.50
2023-02-19T01:44:03.587Z,7.65
2023-02-19T01:46:41.711Z,8.15
2023-02-19T01:49:21.029Z,8.32
2023-02-19T01:51:52.933Z,6.82
2023-02-19T01:54:22.671Z,6.75
2023-02-19T01:56:50.145Z,7.63
2023-02-19T01:59:18.370Z,10.50
2023-02-19T02:01:45.211Z,7.93
2023-02-19T02:04:14.402Z,9.68
2023-02-19T02:06:49.948Z,8.75
2023-02-19T02:09:38.258Z,7.57
2023-02-19T02:12:05.469Z,8.73
2023-02-19T02:14:36.023Z,8.32
2023-02-19T02:17:25.902Z,7.47
2023-02-19T02:20:07.970Z,7.93
2023-02-19T02:22:37.661Z,9.13
2023-02-19T02:25:25.928Z,7.53
2023-02-19T02:28:09.524Z,9.43
2023-02-19T02:30:50.660Z,8.43
2023-02-19T02:33:39.809Z,9.32
2023-02-19T02:36:13.041Z,8.20
2023-02-19T02:38:44.020Z,10.85
2023-02-19T02:41:13.393Z,9.07
2023-02-19T02:43:40.202Z,10.68
2023-02-19T02:46:10.451Z,9.38
2023-02-19T02:48:55.517Z,10.40
2023-02-19T02:51:27.645Z,8.35
2023-02-19T02:54:25.851Z,8.63
2023-02-19T02:56:56.078Z,6.90
2023-02-19T02:59:30.439Z,7.45
2023-02-19T03:02:19.989Z,10.30
2023-02-19T03:05:15.645Z,8.02
2023-02-19T03:07:53.387Z,9.05
2023-02-19T03:10:28.477Z,8.05
2023-02-19T03:16:20.203Z,7.90
2023-02-19T03:19:12.172Z,8.73
2023-02-19T03:21:42.319Z,8.30
2023-02-19T03:24:31.342Z,10.00
2023-02-19T03:27:04.341Z,8.35
2023-02-19T03:29:39.881Z,8.57
2023-02-19T03:32:18.283Z,8.27
2023-02-19T03:34:51.636Z,7.47
2023-02-19T03:37:25.258Z,8.65
2023-02-19T03:39:54.624Z,8.63
2023-02-19T03:42:55.815Z,8.90
2023-02-19T03:45:41.632Z,8.13
2023-02-19T03:48:32.314Z,7.40
2023-02-19T03:51:08.697Z,10.05
2023-02-19T03:53:47.743Z,9.88
2023-02-19T03:56:22.195Z,7.55
2023-02-19T03:59:16.839Z,10.98
2023-02-19T04:01:59.797Z,9.43
2023-02-19T04:04:53.479Z,8.07
2023-02-19T04:07:22.554Z,8.60
2023-02-19T04:09:51.977Z,6.93
2023-02-19T04:12:22.617Z,9.23
2023-02-19T04:14:54.830Z,8.70
2023-02-19T04:17:29.648Z,7.80
2023-02-19T04:19:59.505Z,10.68
2023-02-19T04:22:26.611Z,9.10
2023-02-19T04:24:55.519Z,8.20
2023-02-19T04:27:22.279Z,9.43
2023-02-19T04:29:48.966Z,9.73
2023-02-19T04:32:15.609Z,8.98
2023-02-19T04:34:42.334Z,10.75
2023-02-19T04:37:09.026Z,9.07
2023-02-19T04:39:35.665Z,10.10
2023-02-19T04:42:02.247Z,9.05
2023-02-19T04:44:28.949Z,9.48
2023-02-19T04:46:55.851Z,8.35
2023-02-19T04:49:22.556Z,8.50
2023-02-19T04:51:49.172Z,9.13
2023-02-19T04:54:15.929Z,8.45
2023-02-19T04:56:42.562Z,9.43
2023-02-19T04:59:09.913Z,10.25
2023-02-19T05:01:36.507Z,7.20
2023-02-19T05:04:04.866Z,8.15
2023-02-19T05:06:31.581Z,9.50
2023-02-19T05:08:58.409Z,8.43
2023-02-19T05:11:25.199Z,7.45
2023-02-19T05:13:51.927Z,9.05
2023-02-19T05:16:18.770Z,9.15
2023-02-19T05:18:46.645Z,7.45
2023-02-19T05:21:13.737Z,6.90
2023-02-19T05:23:40.887Z,8.02
2023-02-19T05:26:17.745Z,7.88
2023-02-19T05:28:45.772Z,10.38
2023-02-19T05:31:13.689Z,9.45
2023-02-19T05:33:42.925Z,9.15
2023-02-19T05:36:12.496Z,6.53
2023-02-19T05:38:40.107Z,10.30
2023-02-19T05:41:08.782Z,8.63
2023-02-19T05:43:35.603Z,7.38
2023-02-19T05:46:02.286Z,8.85
2023-02-19T05:48:29.045Z,10.77
2023-02-19T05:51:02.271Z,6.22
2023-02-19T05:53:28.932Z,7.65
2023-02-19T05:55:55.632Z,9.02
2023-02-19T05:58:22.307Z,8.07
2023-02-19T06:00:49.105Z,7.25
2023-02-19T06:03:15.873Z,8.07
2023-02-19T06:05:42.626Z,7.25
2023-02-19T06:08:12.565Z,8.02
2023-02-19T06:10:41.274Z,6.18
2023-02-19T06:13:09.360Z,8.38
2023-02-19T06:15:37.448Z,7.13
2023-02-19T06:18:04.371Z,7.00
2023-02-19T06:20:31.035Z,8.32
2023-02-19T06:22:57.861Z,8.07
2023-02-19T06:25:24.412Z,7.30
2023-02-19T06:27:51.005Z,8.45
2023-02-19T06:30:17.962Z,8.63
2023-02-19T06:32:44.638Z,6.25
2023-02-19T06:35:11.255Z,6.25
2023-02-19T06:37:37.831Z,6.63
2023-02-19T06:40:04.919Z,7.43
2023-02-19T06:42:33.020Z,7.20
2023-02-19T06:47:26.216Z,6.85
2023-02-19T06:49:52.891Z,6.72
2023-02-19T06:52:19.511Z,6.82
2023-02-19T06:54:46.078Z,5.97
2023-02-19T06:57:12.818Z,7.60
2023-02-19T06:59:39.451Z,8.70
2023-02-19T07:02:06.232Z,5.38
2023-02-19T07:04:32.939Z,7.50
2023-02-19T07:07:00.326Z,8.02
2023-02-19T07:09:28.479Z,6.13
2023-02-19T07:11:55.165Z,5.53
2023-02-19T07:14:22.253Z,7.32
2023-02-19T07:16:49.195Z,9.70
2023-02-19T07:19:16.077Z,7.63
2023-02-19T07:21:43.206Z,10.02
2023-02-19T07:24:10.309Z,8.45
2023-02-19T07:26:36.984Z,8.55
2023-02-19T07:29:04.359Z,11.98
2023-02-19T07:31:31.055Z,8.68
2023-02-19T07:33:57.712Z,11.15
2023-02-19T07:36:24.838Z,10.93
2023-02-19T07:38:56.231Z,12.73
2023-02-19T07:41:23.746Z,11.93
2023-02-19T07:43:50.631Z,11.07
2023-02-19T07:46:17.203Z,11.35
2023-02-19T07:48:44.522Z,11.02
2023-02-19T07:51:16.457Z,12.32
2023-02-19T07:53:43.127Z,10.75
2023-02-19T07:56:11.316Z,11.00
2023-02-19T07:58:38.333Z,11.02
2023-02-19T08:01:09.191Z,11.73
2023-02-19T08:03:37.264Z,11.57
2023-02-19T08:06:04.680Z,10.38
2023-02-19T08:08:31.266Z,9.63
2023-02-19T08:11:21.105Z,12.68
2023-02-19T08:13:52.833Z,11.52
2023-02-19T08:16:29.716Z,11.50
2023-02-19T08:19:00.314Z,9.60
2023-02-19T08:21:26.935Z,10.90
2023-02-19T08:23:53.634Z,11.40
2023-02-19T08:26:20.311Z,12.43
2023-02-19T08:28:48.868Z,10.32
2023-02-19T08:31:15.755Z,9.73
2023-02-19T08:33:42.605Z,11.73
2023-02-19T08:36:10.684Z,10.95
2023-02-19T08:38:37.738Z,10.10
2023-02-19T08:41:09.683Z,10.98
2023-02-19T08:43:37.089Z,10.68
2023-02-19T08:46:04.445Z,9.20
2023-02-19T08:48:31.224Z,12.05
2023-02-19T08:51:02.078Z,10.48
2023-02-19T08:53:28.833Z,11.70
2023-02-19T08:55:55.490Z,9.13
2023-02-19T08:58:22.726Z,12.20
2023-02-19T09:00:49.285Z,11.07
2023-02-19T09:03:16.112Z,11.20
2023-02-19T09:05:42.644Z,9.63
2023-02-19T09:08:09.413Z,9.48
2023-02-19T09:10:35.935Z,10.75
2023-02-19T09:13:02.840Z,9.82
2023-02-19T09:15:29.803Z,10.93
2023-02-19T09:17:56.932Z,8.82
2023-02-19T09:20:23.753Z,7.57
2023-02-19T09:22:50.796Z,11.45
2023-02-19T09:25:17.513Z,9.88
2023-02-19T09:27:50.226Z,10.82
2023-02-19T09:30:17.070Z,11.20
2023-02-19T09:32:43.777Z,10.40
2023-02-19T09:35:10.456Z,10.27
2023-02-19T09:37:37.046Z,9.23
2023-02-19T09:40:03.886Z,10.10
2023-02-19T09:42:32.773Z,9.32
2023-02-19T09:45:01.741Z,9.80
2023-02-19T09:47:31.520Z,11.07
2023-02-19T09:50:07.520Z,10.20
2023-02-19T09:52:45.249Z,9.75
2023-02-19T09:55:30.206Z,9.13
2023-02-19T09:58:00.014Z,10.73
2023-02-19T10:00:30.389Z,8.70
2023-02-19T10:03:08.569Z,10.90
2023-02-19T10:05:35.689Z,10.57
2023-02-19T10:08:07.224Z,11.88
2023-02-19T10:10:36.521Z,11.07
2023-02-19T10:13:28.588Z,12.45
2023-02-19T10:18:28.324Z,9.85
2023-02-19T10:20:56.654Z,12.95
2023-02-19T10:23:24.757Z,11.55
2023-02-19T10:25:57.208Z,11.70
2023-02-19T10:28:28.702Z,12.23
2023-02-19T10:31:00.808Z,12.50
2023-02-19T10:33:28.252Z,11.05
2023-02-19T10:35:59.198Z,10.02
2023-02-19T10:38:35.549Z,10.35
2023-02-19T10:41:07.964Z,10.05
2023-02-19T10:43:43.916Z,9.52
2023-02-19T10:46:21.366Z,10.07
2023-02-19T10:48:58.415Z,9.77
2023-02-19T10:51:52.381Z,10.35
2023-02-19T10:54:29.740Z,13.63
2023-02-19T10:57:15.566Z,11.30
2023-02-19T11:02:21.481Z,11.07
2023-02-19T11:05:09.817Z,11.50
2023-02-19T11:07:37.774Z,9.68
2023-02-19T11:10:07.140Z,11.80
2023-02-19T11:12:35.125Z,10.13
2023-02-19T11:15:19.974Z,11.50
2023-02-19T11:18:04.990Z,12.80
2023-02-19T11:20:32.389Z,14.30
2023-02-19T11:25:33.758Z,11.02
2023-02-19T11:28:07.468Z,12.38
2023-02-19T11:30:38.953Z,9.18
2023-02-19T11:33:19.759Z,13.52
2023-02-19T11:35:48.235Z,12.30
2023-02-19T11:38:17.208Z,12.50
2023-02-19T11:41:14.629Z,14.32
2023-02-19T11:44:12.757Z,13.65
2023-02-19T11:46:53.941Z,14.05
2023-02-19T11:49:54.466Z,15.00
2023-02-19T11:52:27.066Z,14.48
2023-02-19T11:55:10.696Z,14.57
2023-02-19T11:57:47.901Z,14.68
2023-02-19T12:00:22.493Z,13.32
2023-02-19T12:03:17.140Z,11.40
2023-02-19T12:06:02.289Z,10.10
2023-02-19T12:09:06.382Z,12.93
2023-02-19T12:11:41.031Z,11.88
2023-02-19T12:14:45.338Z,10.70
2023-02-19T12:17:24.546Z,11.38
2023-02-19T12:20:08.126Z,12.55
2023-02-19T12:23:01.671Z,11.55
2023-02-19T12:25:28.440Z,12.65
2023-02-19T12:28:21.374Z,11.07
2023-02-19T12:31:12.701Z,12.25
2023-02-19T12:36:24.259Z,12.38
2023-02-19T12:39:18.920Z,10.63
2023-02-19T12:42:03.305Z,9.63
2023-02-19T12:44:42.904Z,9.10
2023-02-19T12:47:19.369Z,10.75
2023-02-19T12:50:09.760Z,8.70
2023-02-19T12:52:41.448Z,9.25
2023-02-19T12:55:22.656Z,10.45
2023-02-19T12:57:51.291Z,9.38
2023-02-19T13:00:37.199Z,10.23
2023-02-19T13:03:20.894Z,9.80
2023-02-19T13:06:32.585Z,9.55
2023-02-19T13:09:21.075Z,9.77
2023-02-19T13:11:56.288Z,9.35
2023-02-19T13:14:41.697Z,9.82
2023-02-19T13:17:20.287Z,10.98
2023-02-19T13:19:50.549Z,11.68
2023-02-19T13:22:59.689Z,11.95
2023-02-19T13:25:44.194Z,13.25
2023-02-19T13:28:18.694Z,8.55
2023-02-19T13:31:24.994Z,10.55
2023-02-19T13:34:00.692Z,11.57
2023-02-19T13:36:29.733Z,11.57
2023-02-19T13:38:57.665Z,9.05
2023-02-19T13:41:35.309Z,10.43
2023-02-19T13:44:04.983Z,10.10
2023-02-19T13:46:41.550Z,9.02
2023-02-19T13:49:31.539Z,8.93
2023-02-19T13:52:01.154Z,9.75
2023-02-19T13:54:33.531Z,11.02
2023-02-19T13:57:24.896Z,11.93
2023-02-19T13:59:53.086Z,9.48
2023-02-19T14:02:34.015Z,11.75
2023-02-19T14:05:10.266Z,10.80
2023-02-19T14:07:49.178Z,10.32
2023-02-19T14:10:50.945Z,13.32
2023-02-19T14:13:56.374Z,10.60
2023-02-19T14:16:49.493Z,9.85
2023-02-19T14:19:41.921Z,11.02
2023-02-19T14:22:57.992Z,11.05
2023-02-19T14:25:30.271Z,8.73
2023-02-19T14:28:06.036Z,9.70
2023-02-19T14:30:34.492Z,9.57
2023-02-19T14:33:10.523Z,10.43
2023-02-19T14:35:44.365Z,11.85
2023-02-19T14:38:20.216Z,9.68
2023-02-19T14:40:48.781Z,12.15
2023-02-19T14:43:19.499Z,11.10
2023-02-19T14:45:52.542Z,11.77
2023-02-19T14:48:28.497Z,10.43
2023-02-19T14:51:04.245Z,10.88
2023-02-19T14:53:36.246Z,11.90
2023-02-19T14:56:04.206Z,10.60
2023-02-19T14:58:33.753Z,9.13
2023-02-19T15:01:00.411Z,9.82
2023-02-19T15:03:33.915Z,10.73
2023-02-19T15:06:12.832Z,10.30
2023-02-19T15:08:46.760Z,10.88
2023-02-19T15:11:19.688Z,11.05
2023-02-19T15:13:57.292Z,11.00
2023-02-19T15:16:26.353Z,10.05
2023-02-19T15:18:55.211Z,10.00
2023-02-19T15:21:25.970Z,12.10
2023-02-19T15:24:01.962Z,10.23
2023-02-19T15:26:35.682Z,11.07
2023-02-19T15:29:11.455Z,9.95
2023-02-19T15:31:46.398Z,11.63
2023-02-19T15:34:22.369Z,11.40
2023-02-19T15:36:51.625Z,10.18
2023-02-19T15:39:24.174Z,9.95
2023-02-19T15:41:53.620Z,11.40
2023-02-19T15:44:49.282Z,8.85
2023-02-19T15:47:35.038Z,10.43
2023-02-19T15:50:09.345Z,9.63
2023-02-19T15:52:50.173Z,9.98
2023-02-19T15:55:25.941Z,9.48
2023-02-19T15:58:00.427Z,9.73
2023-02-19T16:00:36.587Z,9.85
2023-02-19T16:03:05.530Z,10.18
2023-02-19T16:05:39.148Z,9.07
2023-02-19T16:08:11.612Z,9.38
2023-02-19T16:10:38.639Z,9.80
2023-02-19T16:13:08.212Z,9.73
2023-02-19T16:15:35.854Z,11.30
2023-02-19T16:18:02.653Z,9.98
2023-02-19T16:20:32.188Z,10.65
2023-02-19T16:23:05.634Z,10.13
2023-02-19T16:25:42.659Z,10.20
2023-02-19T16:28:27.281Z,9.63
2023-02-19T16:31:21.561Z,9.57
2023-02-19T16:33:49.998Z,11.18
2023-02-19T16:36:41.454Z,10.20
2023-02-19T16:39:08.111Z,11.05
2023-02-19T16:41:40.544Z,11.73
2023-02-19T16:44:25.404Z,10.75
2023-02-19T16:46:54.931Z,10.30
2023-02-19T16:49:23.519Z,10.00
2023-02-19T16:51:50.990Z,11.25
2023-02-19T16:54:17.555Z,10.07
2023-02-19T16:56:44.230Z,12.00
2023-02-19T16:59:10.755Z,9.13
2023-02-19T17:01:38.202Z,10.07
2023-02-19T17:06:37.785Z,12.52
2023-02-19T17:09:06.519Z,11.85
2023-02-19T17:11:33.262Z,11.75
2023-02-19T17:14:00.303Z,11.45
2023-02-19T17:16:29.194Z,12.48
2023-02-19T17:18:55.875Z,13.05
2023-02-19T17:21:31.846Z,10.13
2023-02-19T17:23:58.515Z,10.70
2023-02-19T17:26:27.967Z,8.82
2023-02-19T17:28:59.106Z,9.05
2023-02-19T17:31:26.025Z,9.80
2023-02-19T17:33:53.270Z,8.93
2023-02-19T17:36:26.918Z,10.45
2023-02-19T17:41:21.631Z,8.48
2023-02-19T17:43:50.372Z,7.90
2023-02-19T17:46:23.648Z,9.57
2023-02-19T17:48:50.975Z,9.40
2023-02-19T17:51:17.668Z,9.18
2023-02-19T17:53:46.448Z,10.43
2023-02-19T17:56:23.042Z,8.52
2023-02-19T17:58:49.984Z,9.82
2023-02-19T18:01:16.780Z,9.88
2023-02-19T18:03:43.881Z,9.05
2023-02-19T18:06:11.244Z,11.07
2023-02-19T18:08:38.059Z,8.32
2023-02-19T18:11:06.740Z,8.85
2023-02-19T18:13:33.513Z,9.93
2023-02-19T18:16:00.055Z,9.82
2023-02-19T18:18:26.658Z,10.57
2023-02-19T18:20:53.339Z,10.38
2023-02-19T18:23:20.686Z,9.18
2023-02-19T18:25:47.529Z,10.68
2023-02-19T18:28:15.035Z,9.50
2023-02-19T18:30:42.092Z,9.85
2023-02-19T18:33:11.014Z,9.50
2023-02-19T18:35:38.462Z,11.13
2023-02-19T18:38:05.627Z,9.88
2023-02-19T18:40:32.219Z,8.82
2023-02-19T18:42:59.031Z,12.68
2023-02-19T18:45:25.919Z,10.75
2023-02-19T18:47:52.644Z,12.77
2023-02-19T18:50:19.918Z,14.52
2023-02-19T18:52:47.112Z,12.15
2023-02-19T18:55:13.941Z,12.40
2023-02-19T18:57:40.774Z,13.00
2023-02-19T19:00:08.240Z,11.98
2023-02-19T19:02:47.362Z,14.27
2023-02-19T19:05:23.630Z,12.63
2023-02-19T19:07:55.257Z,9.98
2023-02-19T19:10:22.962Z,10.85
2023-02-19T19:12:50.197Z,10.40
2023-02-19T19:15:18.434Z,11.77
2023-02-19T19:17:46.388Z,10.50
2023-02-19T19:22:40.148Z,10.07
2023-02-19T19:25:07.393Z,10.90
2023-02-19T19:27:33.985Z,12.02
2023-02-19T19:30:00.713Z,11.45
2023-02-19T19:32:27.435Z,12.55
2023-02-19T19:34:54.100Z,12.38
2023-02-19T19:37:20.773Z,12.02
2023-02-19T19:39:47.548Z,13.52
2023-02-19T19:42:14.318Z,11.05
2023-02-19T19:44:41.054Z,12.70
2023-02-19T19:47:07.574Z,12.50
2023-02-19T19:49:34.246Z,13.27
2023-02-19T19:52:01.322Z,11.40
2023-02-19T19:54:28.835Z,12.50
2023-02-19T19:56:55.677Z,10.95
2023-02-19T19:59:23.102Z,13.45
2023-02-19T20:01:54.543Z,13.00
2023-02-19T20:04:22.582Z,13.02
2023-02-19T20:06:49.669Z,14.10
2023-02-19T20:09:17.971Z,14.02
2023-02-19T20:11:50.080Z,11.68
2023-02-19T20:14:18.354Z,12.45
2023-02-19T20:16:47.372Z,14.73
2023-02-19T20:19:18.328Z,11.70
2023-02-19T20:21:47.246Z,14.90
2023-02-19T20:24:24.349Z,13.63
2023-02-19T20:26:53.859Z,13.60
2023-02-19T20:29:20.561Z,14.23
2023-02-19T20:31:49.489Z,14.27
2023-02-19T20:34:17.018Z,13.07
2023-02-19T20:36:44.666Z,13.55
2023-02-19T20:39:11.861Z,15.05
2023-02-19T20:41:38.609Z,15.15
2023-02-19T20:44:05.936Z,15.18
2023-02-19T20:46:32.648Z,13.30
2023-02-19T20:48:59.359Z,13.55
2023-02-19T20:51:26.006Z,11.82
2023-02-19T20:53:52.748Z,13.00
2023-02-19T20:56:19.392Z,13.05
2023-02-19T20:58:46.225Z,14.40
2023-02-19T21:01:13.012Z,13.57
2023-02-19T21:03:40.883Z,13.23
2023-02-19T21:06:07.627Z,14.05
2023-02-19T21:08:34.341Z,13.90
2023-02-19T21:11:00.976Z,14.82
2023-02-19T21:13:29.926Z,14.15
2023-02-19T21:15:56.860Z,16.33
2023-02-19T21:18:23.589Z,15.00
2023-02-19T21:20:50.210Z,13.30
2023-02-19T21:23:16.965Z,14.07
2023-02-19T21:25:43.532Z,14.68
2023-02-19T21:28:10.762Z,14.43
2023-02-19T21:30:37.423Z,12.70
2023-02-19T21:33:04.680Z,17.42
2023-02-19T21:35:31.317Z,16.70
2023-02-19T21:37:58.071Z,20.20
2023-02-19T21:40:25.669Z,20.48
2023-02-19T21:42:52.334Z,26.30
2023-02-19T21:45:18.920Z,28.13
2023-02-19T21:47:46.231Z,26.58
2023-02-19T21:50:12.973Z,26.90
2023-02-19T21:52:39.572Z,25.42
2023-02-19T21:55:06.480Z,23.55
2023-02-19T21:57:33.275Z,28.75
2023-02-19T21:59:59.853Z,35.92
2023-02-19T22:02:26.528Z,41.92
2023-02-19T22:04:53.820Z,38.78
2023-02-19T22:07:21.769Z,44.28
2023-02-19T22:12:15.860Z,40.53
2023-02-19T22:14:42.735Z,43.97
2023-02-19T22:17:09.427Z,41.92
2023-02-19T22:19:36.091Z,44.63
2023-02-19T22:22:02.728Z,44.53
2023-02-19T22:24:29.282Z,59.60
2023-02-19T22:26:57.417Z,44.28
2023-02-19T22:29:24.748Z,51.70
2023-02-19T22:31:51.648Z,54.92
2023-02-19T22:34:18.531Z,47.30
2023-02-19T22:36:45.626Z,38.03
2023-02-19T22:39:18.831Z,36.35
2023-02-19T22:41:45.490Z,36.88
2023-02-19T22:44:12.442Z,40.03
2023-02-19T22:46:39.010Z,33.25
2023-02-19T22:49:06.728Z,33.15
2023-02-19T22:51:35.482Z,36.80
2023-02-19T22:54:02.253Z,27.85
2023-02-19T22:56:29.313Z,28.30
2023-02-19T22:58:57.286Z,32.55
2023-02-19T23:01:24.646Z,27.63
2023-02-19T23:04:00.162Z,30.35
2023-02-19T23:06:32.138Z,25.98
2023-02-19T23:09:03.324Z,28.40
2023-02-19T23:11:33.163Z,24.83
2023-02-19T23:14:00.162Z,28.38
2023-02-19T23:16:27.818Z,20.48
2023-02-19T23:18:54.848Z,16.00
2023-02-19T23:21:22.656Z,20.77
2023-02-19T23:23:49.666Z,15.57
2023-02-19T23:26:16.778Z,11.20
2023-02-19T23:28:44.539Z,11.43
2023-02-19T23:31:11.972Z,17.35
2023-02-19T23:33:38.817Z,16.65
2023-02-19T23:36:06.335Z,14.57
2023-02-19T23:38:33.394Z,15.35
2023-02-19T23:41:00.296Z,14.45
2023-02-19T23:43:27.074Z,18.85
2023-02-19T23:45:53.655Z,18.15
2023-02-19T23:48:20.356Z,16.85
2023-02-19T23:50:47.105Z,18.95
2023-02-19T23:53:13.751Z,17.98
2023-02-19T23:55:40.352Z,18.95
2023-02-19T23:58:06.940Z,14.63
